Sfl Kate — VRIX3 — position and weather

sailwx.info

Track history (hours):
 
Tides and Currents Weather Stations Pressure Air Temp Water Temp Dewpoint Dewpoint Depression Visibility Wind Speed Wind Dir Waves Ship Positions

Sfl Kate

Last reported at 2018-Jun-17 08:19 UTC. Time now 2018-Jun-25 00:41 UTC.
Position N 01°19' E 103°19'.

Length 189 m; draft 13 m.

Type: Cargo ship. MMSI: 477434500.

Date/timePositionNaut miles runAvg speedWind from/ knotsBaromVisibWave heightAir tempDewpointWater temp
2018-Jun-17 08:19N 01°19' E 103°19'711.9
2018-Jun-17 07:44N 01°15' E 103°25'311.6
2018-Jun-17 07:30N 01°14' E 103°27'611.3
2018-Jun-17 07:00N 01°13' E 103°33'5 9.8
2018-Jun-17 06:30N 01°12' E 103°37'5 9.4
2018-Jun-17 06:00N 01°10' E 103°42'4 8.5
2018-Jun-17 05:31N 01°09' E 103°46'510.7
2018-Jun-17 05:00N 01°12' E 103°51'5 9.8
2018-Jun-17 04:29N 01°14' E 103°55'510.6
2018-Jun-17 04:00N 01°15' E 104°00'610.6
2018-Jun-17 03:28N 01°16' E 104°06'610.4
2018-Jun-17 02:55N 01°17' E 104°12'410.3
2018-Jun-17 02:29N 01°18' E 104°16'7 9.5
2018-Jun-17 01:46N 01°21' E 104°22'5 8.9
2018-Jun-17 01:14N 01°24' E 104°26'  
Track history (hours):
 
Tides and Currents Weather Stations Pressure Air Temp Water Temp Dewpoint Dewpoint Depression Visibility Wind Speed Wind Dir Waves Ship Positions

Sfl Kate

Last reported at 2018-Jun-17 08:19 UTC. Time now 2018-Jun-25 00:41 UTC.
Position N 01°19' E 103°19'.

Length 189 m; draft 13 m.

Type: Cargo ship. MMSI: 477434500.

Date/timePositionNaut miles runAvg speedWind from/ knotsBaromVisibWave heightAir tempDewpointWater temp
2018-Jun-17 08:19N 01°19' E 103°19'711.9
2018-Jun-17 07:44N 01°15' E 103°25'311.6
2018-Jun-17 07:30N 01°14' E 103°27'611.3
2018-Jun-17 07:00N 01°13' E 103°33'5 9.8
2018-Jun-17 06:30N 01°12' E 103°37'5 9.4
2018-Jun-17 06:00N 01°10' E 103°42'4 8.5
2018-Jun-17 05:31N 01°09' E 103°46'510.7
2018-Jun-17 05:00N 01°12' E 103°51'5 9.8
2018-Jun-17 04:29N 01°14' E 103°55'510.6
2018-Jun-17 04:00N 01°15' E 104°00'610.6
2018-Jun-17 03:28N 01°16' E 104°06'610.4
2018-Jun-17 02:55N 01°17' E 104°12'410.3
2018-Jun-17 02:29N 01°18' E 104°16'7 9.5
2018-Jun-17 01:46N 01°21' E 104°22'5 8.9
2018-Jun-17 01:14N 01°24' E 104°26'  

Dump ship's entire track history